TAM3276 SBGR-SBCH
Flight info
| Callsign | TAM3276 |
|---|---|
| Flight time | 1h 6m |
| Altitude | 34000 |
| Route | SOVSI UZ85 RAXIT DCT UMDOR |
| Aircraft | A320/M-SDE3FGHIRWY/LB1 |
Departure
| Time | 2026-04-25 19:10 |
|---|---|
| Airport | São Paulo/Guarulhos–Governor André Franco Montoro International Airport (SBGR) |
Arrival
| Time | 2026-04-25 20:16 |
|---|---|
| Airport | Serafin Enoss Bertaso Airport (SBCH) |
| Time | Latitude | Longitude | Altitude | Speed | Heading |
|---|---|---|---|---|---|
| 2026-04-25 18:32 | -23.42904 | -46.48356 | 2462 ft | 0 kts | 85° |
| 2026-04-25 18:54 | -23.42905 | -46.48378 | 2461 ft | 4 kts | 85° |
| 2026-04-25 18:54 | -23.42906 | -46.48406 | 2461 ft | 4 kts | 105° |
| 2026-04-25 18:55 | -23.42893 | -46.48427 | 2465 ft | 4 kts | 161° |
| 2026-04-25 18:55 | -23.42879 | -46.48430 | 2461 ft | 1 kts | 186° |
| 2026-04-25 18:55 | -23.42877 | -46.48429 | 2461 ft | 0 kts | 186° |
| 2026-04-25 18:59 | -23.42983 | -46.48452 | 2465 ft | 13 kts | 180° |
| 2026-04-25 18:59 | -23.43179 | -46.48405 | 2463 ft | 15 kts | 163° |
| 2026-04-25 19:00 | -23.43228 | -46.48227 | 2462 ft | 16 kts | 74° |
| 2026-04-25 19:00 | -23.43198 | -46.48118 | 2466 ft | 15 kts | 72° |
| 2026-04-25 19:01 | -23.43145 | -46.47921 | 2461 ft | 12 kts | 73° |
| 2026-04-25 19:01 | -23.43123 | -46.47843 | 2464 ft | 10 kts | 73° |
| 2026-04-25 19:01 | -23.43093 | -46.47728 | 2465 ft | 21 kts | 73° |
| 2026-04-25 19:01 | -23.43049 | -46.47569 | 2464 ft | 23 kts | 74° |
| 2026-04-25 19:02 | -23.42949 | -46.47203 | 2466 ft | 27 kts | 73° |
| 2026-04-25 19:02 | -23.42898 | -46.47013 | 2461 ft | 22 kts | 73° |
| 2026-04-25 19:02 | -23.42858 | -46.46865 | 2463 ft | 20 kts | 72° |
| 2026-04-25 19:03 | -23.42801 | -46.46655 | 2463 ft | 23 kts | 73° |
| 2026-04-25 19:03 | -23.42725 | -46.46376 | 2461 ft | 24 kts | 73° |
| 2026-04-25 19:03 | -23.42676 | -46.46195 | 2464 ft | 25 kts | 74° |
| 2026-04-25 19:04 | -23.42591 | -46.45886 | 2464 ft | 19 kts | 73° |
| 2026-04-25 19:04 | -23.42550 | -46.45736 | 2462 ft | 22 kts | 73° |
| 2026-04-25 19:05 | -23.42478 | -46.45469 | 2461 ft | 10 kts | 86° |
| 2026-04-25 19:05 | -23.42544 | -46.45509 | 2462 ft | 6 kts | 225° |
| 2026-04-25 19:05 | -23.42546 | -46.45510 | 2461 ft | 0 kts | 225° |
| 2026-04-25 19:09 | -23.42635 | -46.45611 | 2465 ft | 26 kts | 227° |
| 2026-04-25 19:10 | -23.42762 | -46.45857 | 2460 ft | 58 kts | 255° |
| 2026-04-25 19:10 | -23.42947 | -46.46548 | 2467 ft | 134 kts | 254° |
| 2026-04-25 19:10 | -23.43270 | -46.47746 | 2594 ft | 184 kts | 254° |
| 2026-04-25 19:10 | -23.43637 | -46.49098 | 3511 ft | 189 kts | 253° |
| 2026-04-25 19:11 | -23.44019 | -46.50452 | 4327 ft | 186 kts | 253° |
| 2026-04-25 19:11 | -23.44404 | -46.51861 | 4659 ft | 205 kts | 253° |
| 2026-04-25 19:11 | -23.44827 | -46.53429 | 5019 ft | 222 kts | 254° |
| 2026-04-25 19:11 | -23.45265 | -46.55055 | 5743 ft | 225 kts | 254° |
| 2026-04-25 19:12 | -23.45868 | -46.56629 | 6456 ft | 229 kts | 231° |
| 2026-04-25 19:12 | -23.47192 | -46.57559 | 7099 ft | 234 kts | 191° |
| 2026-04-25 19:12 | -23.48830 | -46.57566 | 7762 ft | 238 kts | 175° |
| 2026-04-25 19:12 | -23.50483 | -46.57342 | 8466 ft | 241 kts | 173° |
| 2026-04-25 19:13 | -23.52149 | -46.57070 | 9182 ft | 243 kts | 172° |
| 2026-04-25 19:13 | -23.53828 | -46.56792 | 9872 ft | 246 kts | 172° |
| 2026-04-25 19:13 | -23.55591 | -46.56508 | 10256 ft | 265 kts | 173° |
| 2026-04-25 19:13 | -23.57443 | -46.56223 | 10870 ft | 272 kts | 175° |
| 2026-04-25 19:14 | -23.59317 | -46.56397 | 11522 ft | 273 kts | 201° |
| 2026-04-25 19:14 | -23.59884 | -46.56659 | 11735 ft | 273 kts | 210° |
| 2026-04-25 19:14 | -23.62429 | -46.58671 | 12903 ft | 276 kts | 203° |
| 2026-04-25 19:14 | -23.64328 | -46.59334 | 13124 ft | 299 kts | 200° |
| 2026-04-25 19:15 | -23.66131 | -46.60568 | 13267 ft | 318 kts | 228° |
| 2026-04-25 19:15 | -23.67406 | -46.62622 | 13435 ft | 338 kts | 241° |
| 2026-04-25 19:15 | -23.68560 | -46.64860 | 13920 ft | 346 kts | 241° |
| 2026-04-25 19:15 | -23.69747 | -46.67168 | 14546 ft | 350 kts | 241° |
| 2026-04-25 19:16 | -23.70944 | -46.69493 | 15173 ft | 354 kts | 241° |
| 2026-04-25 19:16 | -23.72155 | -46.71846 | 15795 ft | 357 kts | 241° |
| 2026-04-25 19:16 | -23.73379 | -46.74221 | 16400 ft | 361 kts | 241° |
| 2026-04-25 19:16 | -23.74613 | -46.76620 | 16988 ft | 364 kts | 241° |
| 2026-04-25 19:17 | -23.75855 | -46.79044 | 17560 ft | 367 kts | 241° |
| 2026-04-25 19:17 | -23.77102 | -46.81483 | 18123 ft | 370 kts | 241° |
| 2026-04-25 19:17 | -23.78364 | -46.83948 | 18665 ft | 374 kts | 241° |
| 2026-04-25 19:17 | -23.79639 | -46.86437 | 19206 ft | 377 kts | 241° |
| 2026-04-25 19:18 | -23.80923 | -46.88943 | 19731 ft | 380 kts | 241° |
| 2026-04-25 19:18 | -23.82219 | -46.91474 | 20262 ft | 383 kts | 241° |
| 2026-04-25 19:18 | -23.83525 | -46.94027 | 20783 ft | 386 kts | 241° |
| 2026-04-25 19:18 | -23.84834 | -46.96592 | 21303 ft | 389 kts | 241° |
| 2026-04-25 19:19 | -23.86155 | -46.99185 | 21801 ft | 392 kts | 241° |
| 2026-04-25 19:19 | -23.87485 | -47.01798 | 22288 ft | 395 kts | 241° |
| 2026-04-25 19:19 | -23.88827 | -47.04430 | 22761 ft | 398 kts | 241° |
| 2026-04-25 19:19 | -23.89263 | -47.05285 | 22901 ft | 399 kts | 241° |
| 2026-04-25 19:20 | -23.91538 | -47.09750 | 23674 ft | 403 kts | 241° |
| 2026-04-25 19:20 | -23.92905 | -47.12438 | 24119 ft | 406 kts | 241° |
| 2026-04-25 19:20 | -23.94265 | -47.15105 | 24536 ft | 408 kts | 241° |
| 2026-04-25 19:20 | -23.95652 | -47.17825 | 24936 ft | 411 kts | 241° |
| 2026-04-25 19:21 | -23.97043 | -47.20558 | 25329 ft | 413 kts | 241° |
| 2026-04-25 19:21 | -23.99855 | -47.26088 | 26067 ft | 418 kts | 241° |
| 2026-04-25 19:21 | -24.01268 | -47.28867 | 26424 ft | 420 kts | 241° |
| 2026-04-25 19:22 | -24.02691 | -47.31671 | 26779 ft | 422 kts | 241° |
| 2026-04-25 19:22 | -24.03633 | -47.33533 | 26994 ft | 424 kts | 241° |
| 2026-04-25 19:22 | -24.06504 | -47.39208 | 27673 ft | 428 kts | 241° |
| 2026-04-25 19:23 | -24.07946 | -47.42060 | 27986 ft | 430 kts | 241° |
| 2026-04-25 19:23 | -24.11481 | -47.47364 | 28596 ft | 435 kts | 224° |
| 2026-04-25 19:23 | -24.13820 | -47.49476 | 28877 ft | 438 kts | 214° |
| 2026-04-25 19:24 | -24.16388 | -47.51271 | 29161 ft | 440 kts | 213° |
| 2026-04-25 19:24 | -24.18981 | -47.53060 | 29453 ft | 441 kts | 213° |
| 2026-04-25 19:24 | -24.24177 | -47.56668 | 30029 ft | 443 kts | 213° |
| 2026-04-25 19:25 | -24.29400 | -47.60309 | 30533 ft | 446 kts | 213° |
| 2026-04-25 19:25 | -24.32025 | -47.62138 | 30770 ft | 448 kts | 213° |
| 2026-04-25 19:25 | -24.34658 | -47.63974 | 30997 ft | 449 kts | 213° |
| 2026-04-25 19:26 | -24.37300 | -47.65819 | 31223 ft | 450 kts | 213° |
| 2026-04-25 19:26 | -24.39941 | -47.67665 | 31536 ft | 450 kts | 213° |
| 2026-04-25 19:26 | -24.42477 | -47.69658 | 31854 ft | 448 kts | 221° |
| 2026-04-25 19:26 | -24.44755 | -47.71984 | 32138 ft | 447 kts | 224° |
| 2026-04-25 19:27 | -24.46987 | -47.74346 | 32426 ft | 446 kts | 224° |
| 2026-04-25 19:27 | -24.48470 | -47.75914 | 32615 ft | 446 kts | 224° |
| 2026-04-25 19:27 | -24.51423 | -47.79041 | 32997 ft | 445 kts | 224° |
| 2026-04-25 19:27 | -24.53649 | -47.81403 | 33277 ft | 445 kts | 224° |
| 2026-04-25 19:28 | -24.55872 | -47.83761 | 33550 ft | 444 kts | 224° |
| 2026-04-25 19:28 | -24.58096 | -47.86114 | 33825 ft | 443 kts | 224° |
| 2026-04-25 19:28 | -24.60317 | -47.88466 | 33976 ft | 442 kts | 224° |
| 2026-04-25 19:28 | -24.62513 | -47.90790 | 34010 ft | 435 kts | 224° |
| 2026-04-25 19:29 | -24.66844 | -47.95378 | 34010 ft | 432 kts | 224° |
| 2026-04-25 19:29 | -24.71166 | -47.99970 | 34010 ft | 431 kts | 224° |
| 2026-04-25 19:30 | -24.75465 | -48.04564 | 34010 ft | 431 kts | 225° |
| 2026-04-25 19:30 | -24.79774 | -48.09161 | 34009 ft | 431 kts | 224° |
| 2026-04-25 19:31 | -24.84086 | -48.13761 | 34000 ft | 432 kts | 224° |
| 2026-04-25 19:31 | -24.88410 | -48.18370 | 33993 ft | 433 kts | 224° |
| 2026-04-25 19:32 | -24.91442 | -48.21608 | 33991 ft | 434 kts | 224° |
| 2026-04-25 19:32 | -24.95079 | -48.25497 | 33991 ft | 435 kts | 224° |
| 2026-04-25 19:33 | -25.00128 | -48.30896 | 33997 ft | 435 kts | 225° |
| 2026-04-25 19:33 | -25.04471 | -48.35550 | 34004 ft | 435 kts | 225° |
| 2026-04-25 19:34 | -25.08807 | -48.40203 | 34011 ft | 435 kts | 225° |
| 2026-04-25 19:34 | -25.12817 | -48.45168 | 34015 ft | 433 kts | 237° |
| 2026-04-25 19:35 | -25.15806 | -48.50931 | 34015 ft | 432 kts | 241° |
| 2026-04-25 19:35 | -25.18760 | -48.56703 | 34024 ft | 432 kts | 240° |
| 2026-04-25 19:36 | -25.21724 | -48.62469 | 34016 ft | 431 kts | 240° |
| 2026-04-25 19:36 | -25.24677 | -48.68240 | 34015 ft | 432 kts | 241° |
| 2026-04-25 19:37 | -25.27620 | -48.74015 | 34017 ft | 431 kts | 241° |
| 2026-04-25 19:37 | -25.30559 | -48.79786 | 34017 ft | 431 kts | 241° |
| 2026-04-25 19:38 | -25.33500 | -48.85560 | 34006 ft | 431 kts | 241° |
| 2026-04-25 19:38 | -25.36445 | -48.91345 | 33993 ft | 432 kts | 241° |
| 2026-04-25 19:39 | -25.39379 | -48.97113 | 33992 ft | 434 kts | 241° |
| 2026-04-25 19:39 | -25.42331 | -49.02933 | 33991 ft | 435 kts | 241° |
| 2026-04-25 19:40 | -25.45290 | -49.08769 | 33995 ft | 435 kts | 241° |
| 2026-04-25 19:40 | -25.48243 | -49.14615 | 34000 ft | 435 kts | 241° |
| 2026-04-25 19:41 | -25.51188 | -49.20454 | 34004 ft | 435 kts | 241° |
| 2026-04-25 19:41 | -25.53643 | -49.25318 | 34005 ft | 435 kts | 241° |
| 2026-04-25 19:42 | -25.57093 | -49.32157 | 34007 ft | 435 kts | 241° |
| 2026-04-25 19:42 | -25.60037 | -49.38016 | 34008 ft | 435 kts | 241° |
| 2026-04-25 19:43 | -25.62982 | -49.43871 | 34010 ft | 435 kts | 241° |
| 2026-04-25 19:43 | -25.65929 | -49.49738 | 34010 ft | 435 kts | 241° |
| 2026-04-25 19:44 | -25.68869 | -49.55594 | 34010 ft | 435 kts | 241° |
| 2026-04-25 19:44 | -25.71788 | -49.61421 | 34009 ft | 435 kts | 241° |
| 2026-04-25 19:45 | -25.74718 | -49.67296 | 34007 ft | 435 kts | 241° |
| 2026-04-25 19:45 | -25.77652 | -49.73168 | 34009 ft | 435 kts | 241° |
| 2026-04-25 19:46 | -25.80583 | -49.79044 | 34010 ft | 435 kts | 241° |
| 2026-04-25 19:46 | -25.83503 | -49.84917 | 34008 ft | 435 kts | 241° |
| 2026-04-25 19:47 | -25.86428 | -49.90796 | 34010 ft | 435 kts | 241° |
| 2026-04-25 19:47 | -25.89355 | -49.96675 | 34011 ft | 435 kts | 241° |
| 2026-04-25 19:48 | -25.92274 | -50.02557 | 34010 ft | 435 kts | 242° |
| 2026-04-25 19:48 | -25.95185 | -50.08445 | 34009 ft | 435 kts | 242° |
| 2026-04-25 19:49 | -25.97114 | -50.12341 | 34009 ft | 435 kts | 241° |
| 2026-04-25 19:49 | -26.00989 | -50.20174 | 34008 ft | 434 kts | 242° |
| 2026-04-25 19:50 | -26.05350 | -50.29008 | 34012 ft | 434 kts | 242° |
| 2026-04-25 19:51 | -26.08250 | -50.34893 | 34012 ft | 434 kts | 242° |
| 2026-04-25 19:51 | -26.11144 | -50.40786 | 34011 ft | 434 kts | 242° |
| 2026-04-25 19:52 | -26.14040 | -50.46677 | 34009 ft | 434 kts | 242° |
| 2026-04-25 19:52 | -26.16938 | -50.52568 | 34008 ft | 434 kts | 242° |
| 2026-04-25 19:53 | -26.19827 | -50.58460 | 34008 ft | 434 kts | 242° |
| 2026-04-25 19:53 | -26.22714 | -50.64368 | 34007 ft | 434 kts | 242° |
| 2026-04-25 19:54 | -26.25592 | -50.70266 | 34008 ft | 434 kts | 242° |
| 2026-04-25 19:54 | -26.28454 | -50.76132 | 34007 ft | 434 kts | 242° |
| 2026-04-25 19:55 | -26.31340 | -50.82037 | 34007 ft | 434 kts | 242° |
| 2026-04-25 19:55 | -26.34221 | -50.87934 | 34005 ft | 434 kts | 242° |
| 2026-04-25 19:56 | -26.37101 | -50.93868 | 33862 ft | 442 kts | 242° |
| 2026-04-25 19:56 | -26.38576 | -50.96915 | 33614 ft | 450 kts | 242° |
| 2026-04-25 19:56 | -26.40066 | -50.99999 | 33364 ft | 453 kts | 242° |
| 2026-04-25 19:56 | -26.41567 | -51.03099 | 33115 ft | 455 kts | 242° |
| 2026-04-25 19:57 | -26.43074 | -51.06205 | 32549 ft | 456 kts | 242° |
| 2026-04-25 19:57 | -26.44588 | -51.09331 | 31789 ft | 456 kts | 242° |
| 2026-04-25 19:57 | -26.46083 | -51.12422 | 31215 ft | 450 kts | 242° |
| 2026-04-25 19:57 | -26.47566 | -51.15486 | 30589 ft | 447 kts | 242° |
| 2026-04-25 19:58 | -26.49032 | -51.18518 | 29993 ft | 443 kts | 242° |
| 2026-04-25 19:58 | -26.50493 | -51.21538 | 29390 ft | 439 kts | 242° |
| 2026-04-25 19:58 | -26.51919 | -51.24487 | 28810 ft | 436 kts | 242° |
| 2026-04-25 19:58 | -26.53350 | -51.27452 | 28227 ft | 432 kts | 242° |
| 2026-04-25 19:59 | -26.54783 | -51.30427 | 27636 ft | 428 kts | 242° |
| 2026-04-25 19:59 | -26.56169 | -51.33308 | 27076 ft | 425 kts | 242° |
| 2026-04-25 19:59 | -26.57561 | -51.36205 | 26510 ft | 421 kts | 242° |
| 2026-04-25 19:59 | -26.58944 | -51.39076 | 25957 ft | 418 kts | 242° |
| 2026-04-25 20:00 | -26.60314 | -51.41921 | 25408 ft | 414 kts | 242° |
| 2026-04-25 20:00 | -26.60772 | -51.42875 | 25231 ft | 413 kts | 242° |
| 2026-04-25 20:00 | -26.63012 | -51.47535 | 24368 ft | 406 kts | 242° |
| 2026-04-25 20:00 | -26.64341 | -51.50302 | 23881 ft | 402 kts | 242° |
| 2026-04-25 20:01 | -26.66952 | -51.55763 | 22928 ft | 394 kts | 242° |
| 2026-04-25 20:01 | -26.68238 | -51.58450 | 22462 ft | 391 kts | 242° |
| 2026-04-25 20:01 | -26.69516 | -51.61121 | 22005 ft | 388 kts | 242° |
| 2026-04-25 20:02 | -26.70784 | -51.63768 | 21552 ft | 385 kts | 242° |
| 2026-04-25 20:02 | -26.72044 | -51.66399 | 21088 ft | 382 kts | 242° |
| 2026-04-25 20:02 | -26.73289 | -51.69008 | 20622 ft | 379 kts | 242° |
| 2026-04-25 20:02 | -26.74520 | -51.71594 | 20152 ft | 376 kts | 242° |
| 2026-04-25 20:03 | -26.75746 | -51.74170 | 19677 ft | 374 kts | 242° |
| 2026-04-25 20:03 | -26.76966 | -51.76727 | 19203 ft | 371 kts | 242° |
| 2026-04-25 20:03 | -26.78182 | -51.79275 | 18718 ft | 369 kts | 242° |
| 2026-04-25 20:03 | -26.79383 | -51.81801 | 18243 ft | 367 kts | 242° |
| 2026-04-25 20:04 | -26.80563 | -51.84285 | 17767 ft | 365 kts | 242° |
| 2026-04-25 20:04 | -26.81752 | -51.86790 | 17290 ft | 363 kts | 242° |
| 2026-04-25 20:04 | -26.82936 | -51.89281 | 16827 ft | 361 kts | 242° |
| 2026-04-25 20:04 | -26.84114 | -51.91759 | 16366 ft | 359 kts | 242° |
| 2026-04-25 20:05 | -26.85287 | -51.94222 | 15888 ft | 357 kts | 242° |
| 2026-04-25 20:05 | -26.86452 | -51.96673 | 15437 ft | 355 kts | 242° |
| 2026-04-25 20:05 | -26.87605 | -51.99107 | 14984 ft | 354 kts | 242° |
| 2026-04-25 20:05 | -26.88757 | -52.01532 | 14523 ft | 352 kts | 242° |
| 2026-04-25 20:06 | -26.89904 | -52.03949 | 14061 ft | 350 kts | 242° |
| 2026-04-25 20:06 | -26.91041 | -52.06350 | 13605 ft | 348 kts | 242° |
| 2026-04-25 20:06 | -26.92166 | -52.08734 | 13146 ft | 346 kts | 242° |
| 2026-04-25 20:06 | -26.93287 | -52.11111 | 12682 ft | 344 kts | 242° |
| 2026-04-25 20:07 | -26.94401 | -52.13471 | 12210 ft | 341 kts | 242° |
| 2026-04-25 20:07 | -26.95508 | -52.15814 | 11742 ft | 339 kts | 242° |
| 2026-04-25 20:07 | -26.96608 | -52.18141 | 11273 ft | 337 kts | 242° |
| 2026-04-25 20:07 | -26.97700 | -52.20452 | 10801 ft | 334 kts | 242° |
| 2026-04-25 20:08 | -26.98774 | -52.22726 | 10405 ft | 321 kts | 242° |
| 2026-04-25 20:08 | -26.99772 | -52.24842 | 10402 ft | 295 kts | 243° |
| 2026-04-25 20:08 | -27.00694 | -52.26803 | 10251 ft | 274 kts | 243° |
| 2026-04-25 20:08 | -27.01553 | -52.28628 | 10059 ft | 258 kts | 243° |
| 2026-04-25 20:09 | -27.02374 | -52.30374 | 9873 ft | 252 kts | 243° |
| 2026-04-25 20:09 | -27.03204 | -52.32139 | 9289 ft | 260 kts | 243° |
| 2026-04-25 20:09 | -27.04069 | -52.33977 | 8570 ft | 271 kts | 243° |
| 2026-04-25 20:09 | -27.04939 | -52.35827 | 8122 ft | 261 kts | 243° |
| 2026-04-25 20:10 | -27.05761 | -52.37575 | 7965 ft | 248 kts | 242° |
| 2026-04-25 20:10 | -27.06545 | -52.39237 | 7833 ft | 232 kts | 242° |
| 2026-04-25 20:10 | -27.07418 | -52.40643 | 7736 ft | 214 kts | 227° |
| 2026-04-25 20:10 | -27.08524 | -52.41691 | 7479 ft | 206 kts | 212° |
| 2026-04-25 20:11 | -27.09762 | -52.42460 | 7158 ft | 201 kts | 210° |
| 2026-04-25 20:11 | -27.10975 | -52.43201 | 6854 ft | 197 kts | 210° |
| 2026-04-25 20:11 | -27.12167 | -52.43938 | 6563 ft | 195 kts | 210° |
| 2026-04-25 20:11 | -27.13356 | -52.44675 | 6267 ft | 195 kts | 210° |
| 2026-04-25 20:12 | -27.14496 | -52.45472 | 5979 ft | 191 kts | 223° |
| 2026-04-25 20:12 | -27.15317 | -52.46590 | 5731 ft | 184 kts | 242° |
| 2026-04-25 20:12 | -27.15740 | -52.47925 | 5434 ft | 181 kts | 262° |
| 2026-04-25 20:12 | -27.15786 | -52.48399 | 5318 ft | 180 kts | 268° |
| 2026-04-25 20:13 | -27.15535 | -52.50677 | 4868 ft | 175 kts | 279° |
| 2026-04-25 20:13 | -27.15346 | -52.52007 | 4604 ft | 170 kts | 278° |
| 2026-04-25 20:13 | -27.15163 | -52.53300 | 4355 ft | 166 kts | 279° |
| 2026-04-25 20:13 | -27.14983 | -52.54571 | 4112 ft | 164 kts | 278° |
| 2026-04-25 20:14 | -27.14806 | -52.55831 | 3875 ft | 163 kts | 278° |
| 2026-04-25 20:14 | -27.14629 | -52.57075 | 3635 ft | 158 kts | 279° |
| 2026-04-25 20:14 | -27.14462 | -52.58257 | 3436 ft | 149 kts | 279° |
| 2026-04-25 20:14 | -27.14301 | -52.59392 | 3217 ft | 146 kts | 278° |
| 2026-04-25 20:15 | -27.14145 | -52.60510 | 2978 ft | 146 kts | 278° |
| 2026-04-25 20:15 | -27.13991 | -52.61622 | 2732 ft | 145 kts | 279° |
| 2026-04-25 20:15 | -27.13826 | -52.62710 | 2514 ft | 143 kts | 278° |
| 2026-04-25 20:15 | -27.13677 | -52.63810 | 2313 ft | 142 kts | 279° |
| 2026-04-25 20:16 | -27.13520 | -52.64905 | 2148 ft | 141 kts | 279° |
| 2026-04-25 20:16 | -27.13383 | -52.65883 | 2127 ft | 110 kts | 278° |
| 2026-04-25 20:16 | -27.13278 | -52.66595 | 2128 ft | 56 kts | 280° |
| 2026-04-25 20:16 | -27.13254 | -52.66799 | 2129 ft | 13 kts | 281° |
| 2026-04-25 20:17 | -27.13215 | -52.66860 | 2129 ft | 5 kts | 321° |
| 2026-04-25 20:17 | -27.13221 | -52.66882 | 2125 ft | 3 kts | 212° |
| 2026-04-25 20:17 | -27.13247 | -52.66851 | 2128 ft | 11 kts | 104° |
| 2026-04-25 20:17 | -27.13262 | -52.66749 | 2126 ft | 13 kts | 99° |
| 2026-04-25 20:18 | -27.13273 | -52.66671 | 2127 ft | 20 kts | 99° |
| 2026-04-25 20:18 | -27.13306 | -52.66445 | 2129 ft | 22 kts | 99° |
| 2026-04-25 20:18 | -27.13322 | -52.66328 | 2128 ft | 22 kts | 99° |
| 2026-04-25 20:18 | -27.13341 | -52.66199 | 2128 ft | 15 kts | 99° |
| 2026-04-25 20:19 | -27.13346 | -52.66123 | 2129 ft | 6 kts | 73° |
| 2026-04-25 20:19 | -27.13317 | -52.66105 | 2128 ft | 5 kts | 5° |
| 2026-04-25 20:19 | -27.13282 | -52.66100 | 2128 ft | 5 kts | 12° |
| 2026-04-25 20:19 | -27.13258 | -52.66085 | 2127 ft | 0 kts | 43° |